createdAt,value
2023-08-19T00:02:05.244Z,29.12751677852349
2023-08-19T00:05:24.505Z,29.825503355704697
2023-08-19T00:08:44.553Z,30.409395973154364
2023-08-19T00:12:04.380Z,29.120805369127517
2023-08-19T00:15:23.920Z,30.436241610738254
2023-08-19T00:19:39.830Z,30.697986577181208
2023-08-19T00:22:59.505Z,30.241610738255034
2023-08-19T00:26:19.294Z,30.55704697986577
2023-08-19T00:32:01.438Z,30.241610738255034
2023-08-19T00:38:40.174Z,30.738255033557046
2023-08-19T00:42:55.674Z,32.18791946308725
2023-08-19T00:46:15.453Z,31.711409395973153
2023-08-19T00:49:35.349Z,31.06040268456376
2023-08-19T00:52:54.399Z,33.23489932885906
2023-08-19T00:56:14.724Z,32.577181208053695
2023-08-19T00:59:34.355Z,31.76510067114094
2023-08-19T01:02:54.411Z,33.24832214765101
2023-08-19T01:06:13.572Z,33.51677852348993
2023-08-19T01:09:33.351Z,34.32214765100671
2023-08-19T01:12:52.458Z,33.85906040268456
2023-08-19T01:16:12.768Z,35.10738255033557
2023-08-19T01:19:44.391Z,33.919463087248324
2023-08-19T01:23:04.093Z,34.57046979865772
2023-08-19T01:28:41.320Z,35.19463087248322
2023-08-19T01:32:00.686Z,35.30201342281879
2023-08-19T01:35:20.889Z,35.24832214765101
2023-08-19T01:38:40.437Z,35.22147651006711
2023-08-19T01:42:00.037Z,35.604026845637584
2023-08-19T01:45:19.795Z,35.8255033557047
2023-08-19T01:48:39.814Z,36.355704697986575
2023-08-19T01:54:48.041Z,35.25503355704698
2023-08-19T01:58:07.917Z,37.47651006711409
2023-08-19T02:04:32.225Z,36.77181208053691
2023-08-19T02:07:52.246Z,36.5503355704698
2023-08-19T02:11:12.143Z,38.261744966442954
2023-08-19T02:17:22.945Z,38.66442953020134
2023-08-19T02:20:42.549Z,38.50335570469799
2023-08-19T02:24:30.946Z,38.100671140939596
2023-08-19T02:28:49.861Z,39.51677852348993
2023-08-19T02:32:09.837Z,39.54362416107382
2023-08-19T02:35:29.323Z,39.31543624161074
2023-08-19T02:38:49.005Z,38.348993288590606
2023-08-19T02:43:37.884Z,39.81879194630873
2023-08-19T02:47:33.731Z,40.08724832214765
2023-08-19T02:50:54.003Z,41.22818791946309
2023-08-19T02:54:13.690Z,41.29530201342282
2023-08-19T02:57:33.806Z,41.369127516778526
2023-08-19T03:00:53.508Z,40.241610738255034
2023-08-19T03:04:13.667Z,41.58389261744966
2023-08-19T03:07:33.270Z,40.852348993288594
2023-08-19T03:10:54.597Z,42.16778523489933
2023-08-19T03:14:15.052Z,41.47651006711409
2023-08-19T03:17:34.942Z,41.348993288590606
2023-08-19T03:21:54.153Z,43.288590604026844
2023-08-19T03:25:14.033Z,42.214765100671144
2023-08-19T03:28:34.052Z,43.355704697986575
2023-08-19T03:31:53.708Z,42.79194630872483
2023-08-19T03:35:13.702Z,42.691275167785236
2023-08-19T03:38:33.513Z,41.63758389261745
2023-08-19T03:43:03.603Z,43.46979865771812
2023-08-19T03:46:23.949Z,42.46979865771812
2023-08-19T03:49:46.172Z,43.4496644295302
2023-08-19T03:55:38.851Z,43.52348993288591
2023-08-19T04:01:56.543Z,43.83892617449664
2023-08-19T04:05:16.168Z,42.67785234899329
2023-08-19T04:08:36.291Z,44.83221476510067
2023-08-19T04:11:56.047Z,44.651006711409394
2023-08-19T04:17:49.626Z,44.07382550335571
2023-08-19T04:21:09.756Z,43.68456375838926
2023-08-19T04:24:29.844Z,44.20805369127517
2023-08-19T04:31:08.091Z,46.46308724832215
2023-08-19T04:34:27.413Z,45.36241610738255
2023-08-19T04:37:46.942Z,43.946308724832214
2023-08-19T04:41:07.453Z,44.25503355704698
2023-08-19T04:47:35.261Z,46.09395973154363
2023-08-19T04:50:54.648Z,46.02013422818792
2023-08-19T04:54:56.090Z,44.785234899328856
2023-08-19T04:58:15.056Z,45.51006711409396
2023-08-19T05:01:34.614Z,45.288590604026844
2023-08-19T05:07:29.498Z,46.81208053691275
2023-08-19T05:13:26.232Z,45.48322147651007
2023-08-19T05:16:45.995Z,47.51677852348993
2023-08-19T05:20:05.665Z,46.355704697986575
2023-08-19T05:23:25.368Z,46.939597315436245
2023-08-19T05:26:45.029Z,44.88590604026846
2023-08-19T05:30:44.348Z,45.711409395973156
2023-08-19T05:34:03.989Z,47.053691275167786
2023-08-19T05:37:23.823Z,45.92617449664429
2023-08-19T05:40:42.779Z,46.288590604026844
2023-08-19T05:45:41.441Z,45.81208053691275
2023-08-19T05:49:01.470Z,45.75167785234899
2023-08-19T05:52:21.450Z,47.02013422818792
2023-08-19T05:55:40.467Z,45.36241610738255
2023-08-19T05:59:00.239Z,47.07382550335571
2023-08-19T06:02:20.344Z,45.4496644295302
2023-08-19T06:05:40.629Z,45.758389261744966
2023-08-19T06:10:04.859Z,45.20134228187919
2023-08-19T06:13:24.444Z,45.10738255033557
2023-08-19T06:16:44.439Z,44.93288590604027
2023-08-19T06:20:06.240Z,44.422818791946305
2023-08-19T06:23:25.958Z,43.899328859060404
2023-08-19T06:26:46.010Z,44.38926174496644
2023-08-19T06:30:06.229Z,44.033557046979865
2023-08-19T06:33:26.116Z,45.57046979865772
2023-08-19T06:36:45.570Z,44.67785234899329
2023-08-19T06:40:06.803Z,46.006711409395976
2023-08-19T06:43:26.373Z,45.91275167785235
2023-08-19T06:46:45.571Z,43.12080536912752
2023-08-19T06:50:06.467Z,43.93288590604027
2023-08-19T06:53:26.047Z,45.919463087248324
2023-08-19T06:56:45.518Z,46.18120805369127
2023-08-19T07:00:06.859Z,44.08724832214765
2023-08-19T07:03:26.870Z,44.41610738255034
2023-08-19T07:07:42.096Z,43.86577181208054
2023-08-19T07:11:01.788Z,43.61744966442953
2023-08-19T07:14:21.495Z,45.88590604026846
2023-08-19T07:17:41.500Z,43.369127516778526
2023-08-19T07:22:58.903Z,42.18120805369127
2023-08-19T07:27:16.960Z,42.81208053691275
2023-08-19T07:30:36.794Z,43.80536912751678
2023-08-19T07:33:56.967Z,39.966442953020135
2023-08-19T07:37:16.369Z,42.08724832214765
2023-08-19T07:40:36.555Z,41.95302013422819
2023-08-19T07:43:56.545Z,41.66442953020134
2023-08-19T07:47:16.329Z,40.49664429530201
2023-08-19T07:50:36.022Z,40.52348993288591
2023-08-19T07:55:46.300Z,42.38255033557047
2023-08-19T07:59:06.906Z,40.288590604026844
2023-08-19T08:02:33.237Z,42.51677852348993
2023-08-19T08:05:52.464Z,40.84563758389262
2023-08-19T08:09:13.090Z,39.442953020134226
2023-08-19T08:12:32.719Z,39.604026845637584
2023-08-19T08:15:53.085Z,38.97986577181208
2023-08-19T08:19:14.932Z,39.20134228187919
2023-08-19T08:22:35.488Z,36.84563758389262
2023-08-19T08:25:57.427Z,36.58389261744966
2023-08-19T08:29:16.769Z,38.38926174496644
2023-08-19T08:32:36.707Z,38.70469798657718
2023-08-19T08:35:57.070Z,36.83892617449664
2023-08-19T08:39:20.760Z,35.45637583892618
2023-08-19T08:42:40.436Z,33.87248322147651
2023-08-19T08:50:39.071Z,34.738255033557046
2023-08-19T08:54:01.890Z,34.59731543624161
2023-08-19T08:57:22.404Z,32.100671140939596
2023-08-19T09:03:58.381Z,34.67785234899329
2023-08-19T09:07:18.461Z,34.946308724832214
2023-08-19T09:10:38.050Z,34.08724832214765
2023-08-19T09:13:58.102Z,34.013422818791945
2023-08-19T09:17:17.602Z,34.88590604026846
2023-08-19T09:20:37.772Z,34.395973154362416
2023-08-19T09:23:57.475Z,35.02013422818792
2023-08-19T09:27:17.865Z,33.644295302013425
2023-08-19T09:30:43.999Z,34.30201342281879
2023-08-19T09:35:16.606Z,32.66442953020134
2023-08-19T09:38:36.280Z,32.95302013422819
2023-08-19T09:41:56.594Z,32.59731543624161
2023-08-19T09:45:16.571Z,35.2751677852349
2023-08-19T09:48:35.788Z,32.20134228187919
2023-08-19T09:51:55.319Z,32.79194630872483
2023-08-19T09:55:14.983Z,33.20805369127517
2023-08-19T09:58:34.796Z,31.97986577181208
2023-08-19T10:01:54.942Z,33.16107382550336
2023-08-19T10:05:21.693Z,34.69798657718121
2023-08-19T10:08:52.244Z,37.348993288590606
2023-08-19T10:12:12.331Z,33.40268456375839
2023-08-19T10:15:31.553Z,29.91946308724832
2023-08-19T10:18:51.169Z,30.738255033557046
2023-08-19T10:22:11.534Z,30.154362416107382
2023-08-19T10:25:31.118Z,29.758389261744966
2023-08-19T10:44:48.981Z,26.93288590604027
2023-08-19T10:48:08.821Z,28.91275167785235
2023-08-19T10:51:30.024Z,27.751677852348994
2023-08-19T10:54:51.827Z,26.993288590604028
2023-08-19T10:58:11.177Z,27.22818791946309
2023-08-19T11:02:21.784Z,26.389261744966444
2023-08-19T11:08:02.990Z,27.536912751677853
2023-08-19T11:11:23.073Z,26.154362416107382
2023-08-19T11:14:42.540Z,27.476510067114095
2023-08-19T11:20:04.250Z,26.859060402684563
2023-08-19T11:23:24.543Z,24.496644295302012
2023-08-19T11:26:44.106Z,24.65771812080537
2023-08-19T11:30:04.136Z,23.691275167785236
2023-08-19T11:33:25.912Z,24.033557046979865
2023-08-19T11:36:45.917Z,24.34228187919463
2023-08-19T11:40:18.038Z,22.44295302013423
2023-08-19T11:43:42.070Z,24.268456375838927
2023-08-19T11:47:02.082Z,24.38255033557047
2023-08-19T11:50:22.241Z,23.630872483221477
2023-08-19T11:53:42.181Z,23.959731543624162
2023-08-19T11:57:01.921Z,24.026845637583893
2023-08-19T12:00:22.328Z,24.21476510067114
2023-08-19T12:04:43.227Z,26.08053691275168
2023-08-19T12:08:17.529Z,25.80536912751678
2023-08-19T12:11:36.423Z,25.677852348993287
2023-08-19T12:15:35.841Z,25.13422818791946
2023-08-19T12:18:55.648Z,26.23489932885906
2023-08-19T12:22:15.177Z,25.838926174496645
2023-08-19T12:29:39.988Z,26.825503355704697
2023-08-19T12:33:00.470Z,26.0
2023-08-19T12:36:20.108Z,27.114093959731544
2023-08-19T12:39:40.444Z,26.986577181208055
2023-08-19T12:43:00.520Z,26.818791946308725
2023-08-19T12:48:12.878Z,26.74496644295302
2023-08-19T12:51:32.857Z,27.80536912751678
2023-08-19T12:54:51.831Z,25.906040268456376
2023-08-19T12:58:11.911Z,27.63758389261745
2023-08-19T13:01:31.867Z,25.751677852348994
2023-08-19T13:04:51.292Z,24.93959731543624
2023-08-19T13:08:11.279Z,25.953020134228186
2023-08-19T13:11:31.067Z,23.76510067114094
2023-08-19T13:14:50.119Z,24.201342281879196
2023-08-19T13:18:10.466Z,24.19463087248322
2023-08-19T13:21:29.916Z,23.523489932885905
2023-08-19T13:24:49.967Z,24.29530201342282
2023-08-19T13:28:09.869Z,25.19463087248322
2023-08-19T13:32:23.402Z,22.77181208053691
2023-08-19T13:35:43.008Z,23.268456375838927
2023-08-19T13:39:17.006Z,24.29530201342282
2023-08-19T13:42:37.112Z,24.248322147651006
2023-08-19T13:45:56.896Z,25.154362416107382
2023-08-19T13:50:05.061Z,23.563758389261746
2023-08-19T13:53:24.871Z,23.046979865771814
2023-08-19T13:56:44.624Z,22.449664429530202
2023-08-19T14:00:04.320Z,22.248322147651006
2023-08-19T14:04:47.956Z,20.590604026845636
2023-08-19T14:09:17.574Z,20.57718120805369
2023-08-19T14:12:36.750Z,19.20805369127517
2023-08-19T14:15:56.558Z,20.23489932885906
2023-08-19T14:19:16.211Z,19.483221476510067
2023-08-19T14:22:35.913Z,18.40268456375839
2023-08-19T14:25:55.272Z,18.885906040268456
2023-08-19T14:29:15.068Z,19.322147651006713
2023-08-19T14:32:34.301Z,19.25503355704698
2023-08-19T14:35:55.330Z,18.80536912751678
2023-08-19T14:39:15.735Z,18.86577181208054
2023-08-19T14:42:35.206Z,18.644295302013422
2023-08-19T14:48:28.944Z,17.87248322147651
2023-08-19T14:51:48.933Z,18.308724832214764
2023-08-19T14:55:11.160Z,17.74496644295302
2023-08-19T14:58:32.225Z,17.93288590604027
2023-08-19T15:03:41.016Z,18.053691275167786
2023-08-19T15:07:00.833Z,17.355704697986578
2023-08-19T15:13:06.490Z,17.76510067114094
2023-08-19T15:16:25.314Z,16.114093959731544
2023-08-19T15:21:15.894Z,16.120805369127517
2023-08-19T15:24:35.563Z,17.08053691275168
2023-08-19T15:27:55.781Z,16.697986577181208
2023-08-19T15:32:43.868Z,17.107382550335572
2023-08-19T15:36:04.378Z,16.161073825503355
2023-08-19T15:39:24.200Z,16.691275167785236
2023-08-19T15:42:50.458Z,17.74496644295302
2023-08-19T15:46:10.438Z,17.463087248322147
2023-08-19T15:49:30.507Z,18.23489932885906
2023-08-19T15:52:50.230Z,16.476510067114095
2023-08-19T15:56:10.379Z,17.97986577181208
2023-08-19T15:59:30.266Z,18.476510067114095
2023-08-19T16:05:20.688Z,18.604026845637584
2023-08-19T16:08:40.658Z,18.892617449664428
2023-08-19T16:11:59.926Z,19.409395973154364
2023-08-19T16:15:20.103Z,19.993288590604028
2023-08-19T16:18:39.303Z,20.55704697986577
2023-08-19T16:21:59.397Z,19.959731543624162
2023-08-19T16:26:11.271Z,24.073825503355703
2023-08-19T16:29:30.583Z,22.812080536912752
2023-08-19T16:33:41.848Z,27.664429530201343
2023-08-19T16:39:47.187Z,24.36241610738255
2023-08-19T16:43:06.454Z,24.42953020134228
2023-08-19T16:46:42.250Z,28.013422818791945
2023-08-19T16:50:02.006Z,26.845637583892618
2023-08-19T16:53:22.312Z,27.29530201342282
2023-08-19T16:56:42.072Z,27.483221476510067
2023-08-19T17:00:03.375Z,26.86577181208054
2023-08-19T17:03:23.224Z,27.78523489932886
2023-08-19T17:06:42.893Z,26.395973154362416
2023-08-19T17:10:02.549Z,28.986577181208055
2023-08-19T17:18:54.201Z,27.48993288590604
2023-08-19T17:22:14.226Z,27.20805369127517
2023-08-19T17:25:34.232Z,27.677852348993287
2023-08-19T17:28:53.341Z,27.731543624161073
2023-08-19T17:32:13.104Z,27.624161073825505
2023-08-19T17:37:33.657Z,26.899328859060404
2023-08-19T17:40:52.902Z,28.953020134228186
2023-08-19T17:44:13.088Z,32.81208053691275
2023-08-19T17:47:33.013Z,33.74496644295302
2023-08-19T17:50:53.057Z,33.76510067114094
2023-08-19T17:54:12.765Z,34.88590604026846
2023-08-19T17:57:32.896Z,33.22818791946309
2023-08-19T18:00:52.605Z,34.77852348993289
2023-08-19T18:05:41.445Z,38.41610738255034
2023-08-19T18:09:02.237Z,37.993288590604024
2023-08-19T18:12:22.068Z,37.375838926174495
2023-08-19T18:17:27.431Z,38.785234899328856
2023-08-19T18:20:46.490Z,41.12751677852349
2023-08-19T18:24:12.103Z,40.29530201342282
2023-08-19T18:27:31.870Z,42.630872483221474
2023-08-19T18:32:43.593Z,44.51006711409396
2023-08-19T18:36:05.988Z,42.711409395973156
2023-08-19T18:39:25.097Z,42.308724832214764
2023-08-19T18:42:44.914Z,40.50335570469799
2023-08-19T18:46:07.271Z,39.02013422818792
2023-08-19T18:49:26.402Z,41.0
2023-08-19T18:52:46.083Z,39.24832214765101
2023-08-19T18:56:39.843Z,38.73154362416108
2023-08-19T18:59:59.430Z,38.442953020134226
2023-08-19T19:03:19.523Z,37.83892617449664
2023-08-19T19:06:39.693Z,47.45637583892618
2023-08-19T19:09:59.389Z,39.38255033557047
2023-08-19T19:13:19.377Z,37.51006711409396
2023-08-19T19:19:25.538Z,36.577181208053695
2023-08-19T19:26:20.481Z,35.10738255033557
2023-08-19T19:32:22.427Z,35.7248322147651
2023-08-19T19:35:42.535Z,34.785234899328856
2023-08-19T19:39:02.374Z,35.83221476510067
2023-08-19T19:43:40.972Z,35.04697986577181
2023-08-19T19:47:03.198Z,35.18120805369127
2023-08-19T19:50:23.184Z,34.12080536912752
2023-08-19T19:53:42.364Z,33.76510067114094
2023-08-19T19:57:02.662Z,33.2751677852349
2023-08-19T20:00:22.341Z,32.20134228187919
2023-08-19T20:03:42.199Z,33.90604026845637
2023-08-19T20:07:02.225Z,32.7248322147651
2023-08-19T20:10:27.981Z,32.57046979865772
2023-08-19T20:13:49.146Z,32.80536912751678
2023-08-19T20:17:09.561Z,31.0
2023-08-19T20:21:41.328Z,31.315436241610737
2023-08-19T20:25:01.135Z,31.959731543624162
2023-08-19T20:28:21.627Z,30.523489932885905
2023-08-19T20:34:18.863Z,31.416107382550337
2023-08-19T20:37:38.748Z,31.36241610738255
2023-08-19T20:40:58.687Z,30.812080536912752
2023-08-19T20:44:18.591Z,29.463087248322147
2023-08-19T20:47:38.674Z,31.0
2023-08-19T20:50:58.889Z,30.7248322147651
2023-08-19T20:54:19.293Z,31.93288590604027
2023-08-19T20:57:39.386Z,33.63758389261745
2023-08-19T21:00:59.348Z,33.97315436241611
2023-08-19T21:04:19.884Z,37.348993288590606
2023-08-19T21:07:39.876Z,36.993288590604024
2023-08-19T21:11:00.070Z,37.76510067114094
2023-08-19T21:14:20.633Z,39.57046979865772
2023-08-19T21:17:41.014Z,40.006711409395976
2023-08-19T21:21:01.567Z,44.02684563758389
2023-08-19T21:24:21.210Z,46.70469798657718
2023-08-19T21:28:01.577Z,46.20134228187919
2023-08-19T21:31:21.348Z,44.42953020134228
2023-08-19T21:34:40.891Z,53.67785234899329
2023-08-19T21:38:26.452Z,45.395973154362416
2023-08-19T21:44:27.711Z,47.691275167785236
2023-08-19T21:47:47.942Z,40.20805369127517
2023-08-19T21:51:08.082Z,37.442953020134226
2023-08-19T21:54:28.767Z,32.14093959731544
2023-08-19T22:03:07.967Z,32.47651006711409
2023-08-19T22:06:27.835Z,26.671140939597315
2023-08-19T22:11:34.643Z,23.78523489932886
2023-08-19T22:14:54.620Z,23.85234899328859
2023-08-19T22:18:14.890Z,20.630872483221477
2023-08-19T22:21:34.314Z,20.966442953020135
2023-08-19T22:24:53.569Z,19.375838926174495
2023-08-19T22:28:14.099Z,17.543624161073826
2023-08-19T22:31:35.949Z,17.29530201342282
2023-08-19T22:34:57.287Z,17.436241610738254
2023-08-19T22:38:16.973Z,15.953020134228188
2023-08-19T22:41:36.551Z,15.912751677852349
2023-08-19T22:44:55.813Z,15.0
2023-08-19T22:48:16.348Z,14.51006711409396
2023-08-19T22:51:35.699Z,15.369127516778523
2023-08-19T22:54:55.477Z,16.06040268456376
2023-08-19T22:58:15.655Z,14.59731543624161
2023-08-19T23:01:35.130Z,14.348993288590604
2023-08-19T23:04:54.097Z,15.060402684563758
2023-08-19T23:08:14.123Z,15.167785234899329
2023-08-19T23:11:34.073Z,14.919463087248323
2023-08-19T23:14:53.796Z,14.161073825503356
2023-08-19T23:18:14.411Z,13.208053691275168
2023-08-19T23:21:44.052Z,11.731543624161073
2023-08-19T23:25:06.889Z,11.711409395973154
2023-08-19T23:28:26.457Z,11.416107382550335
2023-08-19T23:31:46.235Z,11.25503355704698
2023-08-19T23:35:07.693Z,12.120805369127517
2023-08-19T23:43:12.049Z,10.577181208053691
2023-08-19T23:48:19.862Z,10.395973154362416
2023-08-19T23:51:39.540Z,9.671140939597315
2023-08-19T23:54:59.862Z,10.187919463087248
2023-08-19T23:58:19.757Z,10.59731543624161
